NOAA-style Climate Reports

   V/Λ SELECT: Month and Year   OR  >   Month
                   Monthly Climatological Summary for Apr 2013

Name: Rjoanddalen   City: Mjølfjell   State: Voss
Elevation: 665 m  Lat: N 60° 41' 59"   Lon: E 006° 50' 40"

                  Temperature (°C), Rain (mm), Wind Speed (m/s)

                                      Heat  Cool        Avg
    Mean                              Deg   Deg         Wind                 Dom
Day Temp  High   Time   Low    Time   Days  Days  Rain  Speed High   Time    Dir
----------------------------------------------------------------------------------
01  -5.7  -0.8   15:39 -11.1   23:20  24.0   0.0   0.0  ----   4.9   12:02     N
02  -5.3   2.3   16:42 -11.8   04:08  23.5   0.0   0.0  ----   5.9   15:43   NNW
03  -5.0   1.9   16:12 -10.2   06:06  23.3   0.0   0.0  ----   4.8   13:38     N
04  -4.7   2.7   15:24 -11.0   06:32  23.0   0.0   0.0  ----   4.9   13:10     N
05  -3.7   5.0   16:21  -9.8   06:53  22.0   0.0   0.0  ----   4.7   17:12     N
06  -3.2   3.6   14:17  -8.6   23:59  21.5   0.0   0.0  ----   6.8   13:33     N
07 -10.5  -2.3   11:34 -14.2   05:00  13.9   0.0   0.0  ----   4.2   02:02     N
08  -8.5  -3.3   11:34 -12.2   05:00  13.9   0.0   0.0  ----   5.2   02:02     N
09  -4.5  -1.3   11:34  -8.2   05:00  13.9   0.0   0.0  ----   4.3   02:02     N
10  -2.5   1.3   11:34  -7.2   05:00  13.9   0.0   0.0  ----   9.3   02:02     N
11  -1.5   1.8   11:34  -6.2   05:00  13.9   0.0   0.0  ----   7.3   02:02     N
12   1.5   3.8   11:34  -5.2   05:00  13.9   0.0   0.0  ----   6.3   02:02     N
13   1.5   3.8   11:34  -5.2   05:00  13.9   0.0   0.0  ----   6.3   02:02     N
14   1.5   3.8   11:34  -5.2   05:00  13.9   0.0   0.0  ----   6.3   02:02     N
15   1.5   5.8   11:34   2.2   05:00  13.9   0.0   0.0  ----   6.3   02:02     N
16   1.5   3.8   11:34  -5.2   05:00  13.9   0.0   0.0  ----   6.3   02:02     N
17   1.5   3.8   11:34  -5.2   05:00  13.9   0.0   0.0  ----   6.3   02:02     N
18   1.4   6.1   17:32  -1.6   23:30   5.0   0.0   0.0  ----   3.6   17:11   NNW
19   1.4   6.1   17:32  -1.6   23:30   5.0   0.0   0.0  ----   3.6   17:11   NNW
20   1.4   6.1   17:32  -1.6   23:30   5.0   0.0   0.0  ----   3.6   17:11   NNW
21   1.4   6.1   17:32  -1.6   23:30   5.0   0.0   0.0  ----   3.6   17:11   NNW
22   1.4   6.1   17:32  -1.6   23:30   5.0   0.0   0.0  ----   3.6   17:11   NNW
23   1.4   6.1   17:32  -1.6   23:30   5.0   0.0   0.0  ----   3.6   17:11   NNW
24   1.4   6.1   17:32  -1.6   23:30   5.0   0.0   0.0  ----   3.6   17:11   NNW
25   1.4   6.1   17:32  -1.6   23:30   5.0   0.0   0.0  ----   3.6   17:11   NNW
26   1.4   6.1   17:32  -1.6   23:30   5.0   0.0   0.0  ----   3.6   17:11   NNW
27   1.4   6.1   17:32  -1.6   23:30   5.0   0.0   0.0  ----   3.6   17:11   NNW
28   0.9   6.0   14:18  -2.4   01:05  17.4   0.0   0.0  ----  12.2   15:36    SE
29   2.7   8.8   13:50  -1.0   23:54  15.6   0.0   4.3  ----   7.1   11:41    SE
30   1.1   7.3   13:13  -2.6   21:31  17.2   0.0   7.4  ----   7.9   17:48    NW
----------------------------------------------------------------------------------
    -0.9   8.8    29   -14.2     7   390.4   0.0  11.7  ----  12.2    28       E

Max >=  27.0  0
Max <=   0.0  4
Min <=   0.0 29
Min <= -18.0  0
Max Rain: 7.4 on day 30
Days of Rain: 2 (>= 0.2 mm)  2 (>= 2.0 mm)  0 (>= 300.0 mm)
Heat Base: 17.0  Cool Base: 17.0  Method: Integration

Powered by Ecowitt HP2553  and   CumulusMX   v 3.19.3 (b3196)   MXUI Template v 2.2.3 by  Silver Acorn   (18.1)  Valid HTML5